This is the latest recevied weather packets stored in our database for station/object GW1544. If no packets are shown the sender has not sent any weather packets the latest 10 day(s).
| Time | Temp. | Humidity | Pressure | Rain* | Wind** | Luminosity | Snow |
|---|---|---|---|---|---|---|---|
| 1777791983 | 2.22° C | 88% | 1026 hPa | 0 mm | - | - | - |
| 1777789092 | 2.22° C | 88% | 1026 hPa | 0 mm | - | - | - |
| 1777786957 | 2.22° C | 88% | 1026 hPa | 0 mm | - | - | - |
| 1777786583 | 2.22° C | 88% | 1026 hPa | 0 mm | - | - | - |
| 1777786251 | 2.22° C | 88% | 1026 hPa | 0 mm | - | - | - |
| 1777785535 | 2.22° C | 88% | 1026 hPa | 0 mm | - | - | - |
| 1777783725 | 2.22° C | 86% | 1026 hPa | 0 mm | - | - | - |
| 1777783362 | 2.22° C | 86% | 1025.7 hPa | 0 mm | - | - | - |
| 1777782283 | 2.78° C | 84% | 1025.7 hPa | 0 mm | - | - | - |
| 1777781903 | 2.78° C | 84% | 1025.7 hPa | 0 mm | - | - | - |
| 1777781183 | 3.33° C | 83% | 1025.7 hPa | 0 mm | - | - | - |
| 1777780492 | 3.89° C | 82% | 1025.7 hPa | 0 mm | - | - | - |
| 1777779736 | 4.44° C | 82% | 1025.7 hPa | 0 mm | - | - | - |
| 1777777224 | 5° C | 80% | 1025.3 hPa | 0 mm | - | - | - |
| 1777775778 | 5.56° C | 79% | 1025 hPa | 0 mm | - | - | - |
| 1777771814 | 6.67° C | 76% | 1024.3 hPa | 0 mm | - | - | - |
| 1777769323 | 7.78° C | 72% | 1023.7 hPa | 0 mm | - | - | - |
| 1777767495 | 8.89° C | 72% | 1023.3 hPa | 0 mm | - | - | - |
| 1777765721 | 9.44° C | 69% | 1023 hPa | 0 mm | - | - | - |
| 1777763532 | 12.22° C | 48% | 1023 hPa | 0 mm | - | - | - |
| 1777758852 | 12.78° C | 49% | 1022.6 hPa | 0 mm | - | - | - |
| 1777755634 | 12.78° C | 46% | 1022.3 hPa | 0 mm | - | - | - |
| 1777751654 | 13.33° C | 46% | 1022.6 hPa | 0 mm | - | - | - |
| 1777750969 | 13.33° C | 46% | 1023 hPa | 0 mm | - | - | - |
| 1777746280 | 13.89° C | 44% | 1023.3 hPa | 0 mm | - | - | - |
* Rain since midnight (hover to see other rain measurements)
** Current wind speed in m/s (hover to see current wind gust speed)